Time;durP1;ratioP1;P1;durP2;ratioP2;P2;SDS_P1;SDS_P2;PMS_P1;PMS_P2;Temp;Humidity;BMP_temperature;BMP_pressure;BME280_temperature;BME280_humidity;BME280_pressure;Samples;Min_cycle;Max_cycle;Signal;HPM_P1;HPM_P2
2023/08/13 00:00:52;;;;;;;6.35;2.20;;;23.50;92.30;;;;;;5045633;28;20044;-65
2023/08/13 00:03:17;;;;;;;6.30;2.40;;;23.40;90.80;;;;;;5053752;28;20040;-66
2023/08/13 00:05:46;;;;;;;5.35;2.20;;;23.80;90.90;;;;;;5045346;28;20434;-67
2023/08/13 00:08:11;;;;;;;5.28;2.03;;;23.50;92.30;;;;;;5046956;28;20045;-67
2023/08/13 00:10:38;;;;;;;5.72;2.28;;;23.30;90.80;;;;;;5040426;28;20443;-63
2023/08/13 00:13:04;;;;;;;5.93;2.22;;;23.40;90.80;;;;;;5047382;28;20124;-65
2023/08/13 00:15:29;;;;;;;5.75;2.50;;;23.70;90.90;;;;;;5037673;28;20665;-65
2023/08/13 00:17:55;;;;;;;6.00;2.10;;;23.40;90.80;;;;;;5049269;28;20048;-65
2023/08/13 00:20:21;;;;;;;7.90;2.50;;;23.50;92.20;;;;;;5057998;28;20040;-70
2023/08/13 00:22:47;;;;;;;6.13;2.25;;;23.60;92.30;;;;;;5063294;28;20048;-64
2023/08/13 00:25:13;;;;;;;4.65;2.13;;;23.50;90.80;;;;;;5049677;28;20055;-64
2023/08/13 00:27:39;;;;;;;6.47;2.40;;;23.50;92.30;;;;;;5046945;28;20079;-68
2023/08/13 00:30:06;;;;;;;5.43;2.28;;;23.40;90.80;;;;;;5052288;28;20427;-64
2023/08/13 00:32:31;;;;;;;6.65;2.45;;;23.50;91.90;;;;;;5048449;28;20076;-65
2023/08/13 00:34:57;;;;;;;7.07;2.42;;;23.60;90.80;;;;;;5045292;28;20076;-65
2023/08/13 00:37:23;;;;;;;6.25;2.40;;;23.40;90.80;;;;;;5048325;28;20110;-67
2023/08/13 00:39:49;;;;;;;4.45;2.17;;;23.40;90.80;;;;;;5050290;28;20530;-64
2023/08/13 00:42:14;;;;;;;5.93;2.20;;;23.40;90.80;;;;;;5050788;28;20037;-64
2023/08/13 00:44:40;;;;;;;5.95;2.42;;;23.30;90.70;;;;;;5046369;28;20037;-64
2023/08/13 00:47:06;;;;;;;5.43;2.33;;;23.40;90.70;;;;;;5048716;28;20071;-64
2023/08/13 00:49:32;;;;;;;6.35;2.17;;;23.40;90.80;;;;;;5016744;28;20045;-64
2023/08/13 00:51:57;;;;;;;5.88;2.10;;;23.40;90.80;;;;;;5050260;28;20045;-68
2023/08/13 00:54:23;;;;;;;6.85;2.38;;;23.40;90.70;;;;;;5057296;28;20032;-64
2023/08/13 00:56:50;;;;;;;6.63;2.15;;;23.40;90.80;;;;;;5022660;28;20060;-64
2023/08/13 00:59:16;;;;;;;6.95;2.65;;;23.50;90.90;;;;;;5032256;28;20049;-64
2023/08/13 01:01:42;;;;;;;5.60;2.00;;;23.40;90.70;;;;;;5004385;28;20059;-65
2023/08/13 01:04:08;;;;;;;6.18;2.50;;;23.60;90.90;;;;;;5027106;28;20056;-70
2023/08/13 01:06:46;;;;;;;5.93;2.40;;;23.30;90.70;;;;;;5053048;28;20054;-63
2023/08/13 01:09:38;;;;;;;6.93;2.30;;;23.40;90.30;;;;;;5030506;28;20049;-71
2023/08/13 01:12:33;;;;;;;5.82;2.00;;;23.50;92.00;;;;;;5029606;28;20052;-64
2023/08/13 01:15:08;;;;;;;5.80;2.22;;;23.50;90.30;;;;;;5063812;28;20056;-67
2023/08/13 01:17:35;;;;;;;5.15;1.95;;;23.60;92.10;;;;;;5045831;28;20036;-67
2023/08/13 01:20:04;;;;;;;6.20;2.50;;;23.40;90.70;;;;;;5014444;28;20083;-63
2023/08/13 01:22:30;;;;;;;6.05;2.20;;;23.40;91.90;;;;;;5016876;28;20045;-70
2023/08/13 01:24:56;;;;;;;6.45;2.20;;;23.60;90.80;;;;;;5070778;28;20106;-64
2023/08/13 01:27:28;;;;;;;6.57;2.33;;;23.30;90.60;;;;;;5070802;28;20051;-63
2023/08/13 01:30:22;;;;;;;6.93;2.20;;;23.50;91.90;;;;;;5051436;28;20115;-63
2023/08/13 01:32:56;;;;;;;7.50;2.88;;;23.20;90.10;;;;;;5037570;28;20053;-63
2023/08/13 01:35:22;;;;;;;6.28;2.33;;;23.30;90.80;;;;;;5030408;28;20519;-69
2023/08/13 01:37:49;;;;;;;10.73;2.67;;;23.50;90.70;;;;;;5056791;28;20057;-71
2023/08/13 01:40:15;;;;;;;8.30;2.70;;;23.50;92.10;;;;;;5019592;28;20045;-73
2023/08/13 01:42:43;;;;;;;7.00;2.22;;;23.50;90.70;;;;;;5050204;28;20064;-66
2023/08/13 01:45:09;;;;;;;6.00;2.45;;;23.30;90.80;;;;;;5053188;28;20041;-68
2023/08/13 01:47:34;;;;;;;6.00;2.45;;;23.40;90.60;;;;;;5038376;28;20044;-68
2023/08/13 01:50:00;;;;;;;6.25;2.50;;;23.20;90.60;;;;;;5030710;28;20041;-73
2023/08/13 01:52:26;;;;;;;6.38;2.60;;;23.40;90.70;;;;;;5045954;28;20049;-69
2023/08/13 01:54:52;;;;;;;7.15;2.45;;;23.10;90.60;;;;;;5050924;28;20095;-64
2023/08/13 01:57:18;;;;;;;8.77;2.67;;;23.50;90.80;;;;;;5065091;28;20380;-71
2023/08/13 01:59:43;;;;;;;8.00;2.42;;;23.70;92.20;;;;;;5034252;28;20053;-68
2023/08/13 02:02:09;;;;;;;6.13;2.60;;;23.30;91.90;;;;;;5047237;28;20605;-68
2023/08/13 02:04:35;;;;;;;7.82;2.83;;;23.20;90.60;;;;;;5049924;28;20040;-74
2023/08/13 02:07:00;;;;;;;5.45;2.20;;;23.20;90.60;;;;;;5053358;28;20085;-70
2023/08/13 02:09:26;;;;;;;6.38;2.20;;;23.30;92.00;;;;;;5045877;28;20224;-66
2023/08/13 02:11:52;;;;;;;7.05;2.33;;;23.30;90.60;;;;;;5049783;28;20060;-71
2023/08/13 02:14:18;;;;;;;5.28;2.30;;;23.40;91.90;;;;;;5060157;28;20069;-69
2023/08/13 02:16:43;;;;;;;6.97;2.28;;;23.30;90.60;;;;;;5035103;28;20051;-70
2023/08/13 02:19:09;;;;;;;6.95;2.35;;;23.10;90.60;;;;;;5023032;28;20045;-67
2023/08/13 02:21:35;;;;;;;8.35;2.45;;;23.20;90.60;;;;;;5036336;28;20348;-64
2023/08/13 02:24:00;;;;;;;7.72;2.42;;;23.60;90.70;;;;;;5034061;28;20120;-65
2023/08/13 02:26:26;;;;;;;9.57;2.05;;;23.50;90.70;;;;;;5044809;28;20042;-64
2023/08/13 02:28:52;;;;;;;7.72;3.17;;;23.30;92.10;;;;;;5051264;28;20053;-66
2023/08/13 02:31:17;;;;;;;7.30;2.30;;;23.30;90.70;;;;;;5044192;28;20107;-74
2023/08/13 02:33:43;;;;;;;7.90;2.22;;;23.40;90.70;;;;;;5045745;28;20510;-65
2023/08/13 02:36:09;;;;;;;5.95;2.22;;;23.40;90.70;;;;;;5048629;28;20048;-66
2023/08/13 02:38:35;;;;;;;7.60;2.80;;;23.30;90.70;;;;;;5051427;28;20497;-68
2023/08/13 02:41:01;;;;;;;6.28;2.60;;;23.30;90.70;;;;;;5032601;28;20033;-71
2023/08/13 02:43:28;;;;;;;8.48;2.45;;;23.30;90.70;;;;;;5051721;28;20041;-72
2023/08/13 02:45:54;;;;;;;8.20;2.63;;;23.30;90.80;;;;;;5054888;28;20041;-64
2023/08/13 02:48:19;;;;;;;6.53;2.33;;;23.40;90.70;;;;;;5046307;28;20103;-70
2023/08/13 02:50:45;;;;;;;7.88;2.83;;;23.40;90.70;;;;;;5039213;28;20441;-66
2023/08/13 02:53:11;;;;;;;6.28;2.20;;;21.50;90.30;;;;;;5033805;28;20041;-67
2023/08/13 02:55:37;;;;;;;5.32;2.30;;;23.50;90.80;;;;;;5053162;28;20048;-69
2023/08/13 02:58:02;;;;;;;7.18;2.30;;;23.30;90.70;;;;;;5056948;28;20036;-69
2023/08/13 03:00:28;;;;;;;6.10;2.20;;;23.20;90.60;;;;;;5051287;28;20459;-69
2023/08/13 03:02:54;;;;;;;5.85;2.25;;;23.50;90.70;;;;;;5059278;28;20052;-68
2023/08/13 03:05:20;;;;;;;8.45;2.45;;;23.30;90.70;;;;;;5076558;28;20127;-66
2023/08/13 03:07:45;;;;;;;9.93;2.65;;;23.30;90.70;;;;;;5032630;28;20135;-70
2023/08/13 03:10:12;;;;;;;6.72;2.40;;;23.20;92.10;;;;;;5017600;28;20138;-65
2023/08/13 03:12:37;;;;;;;7.13;2.50;;;23.30;90.60;;;;;;5044147;28;20491;-63
2023/08/13 03:15:04;;;;;;;6.43;2.35;;;23.20;90.70;;;;;;5034174;28;20126;-73
2023/08/13 03:17:29;;;;;;;9.02;2.80;;;23.30;90.60;;;;;;5045807;28;20042;-68
2023/08/13 03:19:57;;;;;;;9.25;2.63;;;23.40;90.70;;;;;;5033852;28;20055;-61
2023/08/13 03:22:23;;;;;;;7.72;2.53;;;23.30;92.10;;;;;;5035085;28;20079;-65
2023/08/13 03:24:49;;;;;;;6.95;2.40;;;23.30;91.90;;;;;;5037540;28;20136;-69
2023/08/13 03:27:14;;;;;;;7.53;2.67;;;23.30;92.10;;;;;;5052385;28;20041;-70
2023/08/13 03:29:40;;;;;;;7.32;2.45;;;23.20;90.70;;;;;;5041937;28;20083;-69
2023/08/13 03:32:06;;;;;;;7.30;2.83;;;23.20;90.60;;;;;;5033685;28;20064;-69
2023/08/13 03:34:31;;;;;;;8.70;2.78;;;23.30;90.70;;;;;;5023960;28;20045;-66
2023/08/13 03:36:57;;;;;;;7.15;2.50;;;23.20;90.70;;;;;;5048102;28;20079;-67
2023/08/13 03:39:23;;;;;;;6.35;2.38;;;23.20;90.70;;;;;;5056127;28;20104;-66
2023/08/13 03:41:49;;;;;;;5.90;2.53;;;23.20;90.70;;;;;;5052693;28;20041;-67
2023/08/13 03:44:15;;;;;;;7.60;2.72;;;23.30;91.90;;;;;;5049654;28;20041;-68
2023/08/13 03:46:40;;;;;;;7.03;2.75;;;23.00;92.10;;;;;;5033119;28;20080;-68
2023/08/13 03:49:06;;;;;;;7.68;2.38;;;23.20;91.90;;;;;;5053381;28;20055;-75
2023/08/13 03:51:32;;;;;;;5.88;2.28;;;23.30;90.60;;;;;;5049770;28;20029;-72
2023/08/13 03:53:58;;;;;;;7.90;2.70;;;23.20;90.60;;;;;;5051149;28;20487;-61
2023/08/13 03:56:24;;;;;;;8.15;2.65;;;23.30;90.70;;;;;;5034315;28;20166;-77
2023/08/13 03:58:50;;;;;;;7.40;2.70;;;23.10;91.80;;;;;;5044014;28;20653;-67
2023/08/13 04:01:16;;;;;;;7.85;2.70;;;23.40;92.30;;;;;;5034058;28;20079;-69
2023/08/13 04:03:42;;;;;;;6.47;2.50;;;23.20;90.70;;;;;;5066319;28;20044;-67
2023/08/13 04:06:08;;;;;;;6.63;2.58;;;23.10;90.60;;;;;;5072392;28;20620;-66
2023/08/13 04:08:35;;;;;;;6.72;2.33;;;23.20;90.70;;;;;;5060536;28;20097;-63
2023/08/13 04:11:01;;;;;;;6.25;2.47;;;23.10;90.70;;;;;;5045305;28;20077;-66
2023/08/13 04:13:27;;;;;;;9.20;2.47;;;23.20;92.20;;;;;;5034026;28;20568;-68
2023/08/13 04:15:53;;;;;;;6.95;2.50;;;23.20;90.70;;;;;;5014513;28;20076;-63
2023/08/13 04:18:18;;;;;;;6.70;2.33;;;23.30;92.20;;;;;;5054444;28;20052;-64
2023/08/13 04:20:44;;;;;;;7.15;2.80;;;23.30;90.70;;;;;;5069472;28;20036;-62
2023/08/13 04:23:10;;;;;;;5.88;2.60;;;23.10;90.70;;;;;;5061269;28;20037;-64
2023/08/13 04:25:36;;;;;;;8.35;2.88;;;23.20;90.70;;;;;;5036699;28;20044;-63
2023/08/13 04:28:02;;;;;;;6.70;2.50;;;23.30;92.10;;;;;;5061204;28;20049;-62
2023/08/13 04:30:28;;;;;;;7.28;2.60;;;23.10;90.60;;;;;;5051411;28;20045;-61
2023/08/13 04:32:54;;;;;;;7.78;2.50;;;23.30;90.60;;;;;;5032494;28;20051;-63
2023/08/13 04:35:21;;;;;;;8.32;2.50;;;23.40;90.90;;;;;;5038591;28;20049;-65
2023/08/13 04:37:47;;;;;;;7.03;2.80;;;23.20;91.80;;;;;;5002950;28;20053;-68
2023/08/13 04:40:13;;;;;;;6.78;2.45;;;22.90;92.10;;;;;;5032990;28;20512;-65
2023/08/13 04:42:40;;;;;;;9.32;2.83;;;23.10;92.20;;;;;;5069852;28;20054;-62
2023/08/13 04:45:07;;;;;;;8.38;2.72;;;23.10;91.90;;;;;;5060651;28;20491;-62
2023/08/13 04:47:32;;;;;;;8.73;2.67;;;23.50;90.60;;;;;;5039128;28;20103;-63
2023/08/13 04:49:58;;;;;;;10.43;2.78;;;23.40;92.20;;;;;;5027653;28;20041;-63
2023/08/13 04:52:24;;;;;;;8.25;2.67;;;23.40;90.70;;;;;;5056092;28;20068;-71
2023/08/13 04:54:49;;;;;;;10.57;3.05;;;23.30;90.60;;;;;;5040084;28;20076;-68
2023/08/13 04:57:15;;;;;;;9.48;2.97;;;23.40;90.60;;;;;;5047064;28;20037;-75
2023/08/13 04:59:41;;;;;;;9.07;2.78;;;23.50;90.70;;;;;;5037205;28;20040;-75
2023/08/13 05:02:07;;;;;;;12.45;2.67;;;23.40;90.50;;;;;;5061046;28;20049;-72
2023/08/13 05:04:32;;;;;;;8.40;3.30;;;23.30;90.50;;;;;;5030492;28;20045;-70
2023/08/13 05:06:58;;;;;;;7.40;2.70;;;23.60;90.60;;;;;;5018753;28;20482;-74
2023/08/13 05:09:24;;;;;;;8.88;2.33;;;23.60;90.50;;;;;;5042566;28;20794;-76
2023/08/13 05:11:49;;;;;;;6.85;2.72;;;23.70;90.40;;;;;;5043879;28;20049;-74
2023/08/13 05:14:15;;;;;;;8.43;2.65;;;23.70;90.40;;;;;;5050865;28;20048;-68
2023/08/13 05:16:41;;;;;;;14.48;3.17;;;23.70;90.40;;;;;;5050761;28;20045;-75
2023/08/13 05:19:07;;;;;;;8.45;2.83;;;23.70;90.30;;;;;;5037460;28;20076;-62
2023/08/13 05:21:32;;;;;;;10.07;2.85;;;24.10;90.30;;;;;;5057665;28;20045;-67
2023/08/13 05:23:58;;;;;;;8.18;2.60;;;23.90;91.20;;;;;;5071980;28;20044;-69
2023/08/13 05:26:24;;;;;;;9.40;3.00;;;24.00;90.10;;;;;;5070602;28;20041;-76
2023/08/13 05:28:50;;;;;;;9.07;3.10;;;24.00;90.00;;;;;;5041289;28;20462;-77
2023/08/13 05:31:15;;;;;;;7.75;2.65;;;24.10;89.90;;;;;;5055303;28;20106;-76
2023/08/13 05:33:41;;;;;;;9.95;2.70;;;24.10;89.80;;;;;;5051383;28;20056;-78
2023/08/13 05:36:07;;;;;;;9.88;2.65;;;24.30;89.90;;;;;;5050561;28;20038;-80
2023/08/13 05:38:33;;;;;;;7.68;2.67;;;24.10;89.60;;;;;;5018286;28;20052;-68
2023/08/13 05:40:58;;;;;;;6.57;2.58;;;24.10;89.40;;;;;;5050002;28;20107;-78
2023/08/13 05:43:24;;;;;;;8.50;2.78;;;24.30;89.20;;;;;;5053489;28;20415;-71
2023/08/13 05:45:50;;;;;;;11.15;3.53;;;24.40;89.20;;;;;;5053110;28;20158;-70
2023/08/13 05:48:16;;;;;;;8.60;3.17;;;24.30;88.60;;;;;;5049406;28;20055;-71
2023/08/13 05:50:41;;;;;;;7.07;2.47;;;24.10;88.80;;;;;;5049650;28;20042;-75
2023/08/13 05:53:07;;;;;;;7.20;2.47;;;24.30;88.70;;;;;;5055095;28;20052;-70
2023/08/13 05:55:33;;;;;;;8.70;2.72;;;24.20;88.70;;;;;;5053405;28;20037;-72
2023/08/13 05:57:59;;;;;;;9.20;2.83;;;24.10;88.40;;;;;;5052033;28;20047;-63
2023/08/13 06:00:25;;;;;;;6.55;2.40;;;24.20;88.60;;;;;;5050253;28;20124;-64
2023/08/13 06:02:51;;;;;;;7.75;2.78;;;24.20;88.40;;;;;;5057406;28;20095;-60
2023/08/13 06:05:16;;;;;;;5.88;2.10;;;24.30;88.50;;;;;;5051688;28;20049;-60
2023/08/13 06:07:43;;;;;;;6.30;2.63;;;24.40;88.40;;;;;;5051126;28;20044;-60
2023/08/13 06:10:09;;;;;;;8.80;3.40;;;24.40;88.40;;;;;;5053123;28;20052;-74
2023/08/13 06:12:35;;;;;;;8.57;2.75;;;24.40;90.50;;;;;;5051018;28;20063;-66
2023/08/13 06:15:01;;;;;;;9.02;3.17;;;24.60;88.40;;;;;;5036302;28;20095;-61
2023/08/13 06:17:27;;;;;;;7.20;2.70;;;24.20;88.20;;;;;;5050064;28;20032;-61
2023/08/13 06:19:52;;;;;;;8.52;2.85;;;24.40;88.10;;;;;;5054466;28;20057;-61
2023/08/13 06:22:18;;;;;;;7.10;2.90;;;24.30;88.00;;;;;;5047860;28;20052;-61
2023/08/13 06:24:44;;;;;;;10.10;2.97;;;24.50;88.10;;;;;;5044033;28;20034;-60
2023/08/13 06:27:11;;;;;;;11.63;3.20;;;24.50;88.20;;;;;;5035812;28;20124;-60
2023/08/13 06:29:36;;;;;;;7.53;2.65;;;24.60;89.00;;;;;;5049128;28;20461;-65
2023/08/13 06:32:02;;;;;;;9.02;3.33;;;24.30;88.10;;;;;;5052811;28;20040;-61
2023/08/13 06:34:28;;;;;;;6.65;2.47;;;24.30;88.00;;;;;;5055020;28;20071;-65
2023/08/13 06:36:54;;;;;;;7.93;2.90;;;24.30;88.20;;;;;;5051536;28;20037;-71
2023/08/13 06:39:21;;;;;;;7.40;3.15;;;24.40;88.50;;;;;;5049463;28;20122;-76
2023/08/13 06:41:47;;;;;;;8.18;3.10;;;24.40;88.60;;;;;;5043015;28;20056;-69
2023/08/13 06:44:19;;;;;;;9.45;3.10;;;24.50;90.90;;;;;;5045632;28;20037;-68
2023/08/13 06:46:48;;;;;;;9.93;3.42;;;24.40;88.90;;;;;;5039257;28;20041;-78
2023/08/13 06:49:14;;;;;;;8.88;2.78;;;24.20;88.40;;;;;;5055514;28;20091;-68
2023/08/13 06:51:40;;;;;;;10.75;3.13;;;24.20;88.50;;;;;;5072342;28;20084;-73
2023/08/13 06:54:06;;;;;;;7.32;2.92;;;24.50;88.70;;;;;;5043409;28;20048;-70
2023/08/13 06:56:32;;;;;;;10.27;3.03;;;24.60;88.40;;;;;;5045013;28;20093;-61
2023/08/13 06:58:58;;;;;;;9.15;3.03;;;24.40;88.40;;;;;;5018084;28;20321;-74
2023/08/13 07:01:24;;;;;;;9.30;2.85;;;24.60;88.30;;;;;;5036179;28;20045;-73
2023/08/13 07:03:50;;;;;;;8.95;3.20;;;24.80;88.20;;;;;;5032367;28;20057;-77
2023/08/13 07:06:15;;;;;;;7.40;3.10;;;25.00;87.90;;;;;;5031589;28;20044;-62
2023/08/13 07:08:41;;;;;;;7.18;2.60;;;24.80;87.50;;;;;;5042552;28;20127;-62
2023/08/13 07:11:07;;;;;;;9.90;3.10;;;25.10;87.00;;;;;;5053513;28;20045;-61
2023/08/13 07:13:35;;;;;;;6.38;2.50;;;25.40;86.40;;;;;;5069469;28;20491;-60
2023/08/13 07:16:01;;;;;;;9.98;3.00;;;25.30;86.50;;;;;;5057852;28;20123;-73
2023/08/13 07:18:26;;;;;;;7.70;2.70;;;25.50;86.50;;;;;;5059040;28;20056;-72
2023/08/13 07:20:52;;;;;;;8.85;3.10;;;25.40;86.50;;;;;;5029334;28;20467;-69
2023/08/13 07:23:18;;;;;;;7.30;2.42;;;25.20;86.30;;;;;;5070428;28;20036;-67
2023/08/13 07:25:44;;;;;;;9.35;2.85;;;25.30;86.20;;;;;;5041074;28;20077;-67
2023/08/13 07:28:09;;;;;;;7.28;2.95;;;25.50;86.30;;;;;;5015641;28;20045;-73
2023/08/13 07:30:35;;;;;;;7.60;2.65;;;25.60;86.30;;;;;;5049545;28;20041;-75
2023/08/13 07:33:01;;;;;;;13.57;5.15;;;25.40;86.10;;;;;;5030742;28;20045;-60
2023/08/13 07:35:26;;;;;;;13.43;7.10;;;25.60;86.00;;;;;;5047769;28;20037;-72
2023/08/13 07:37:52;;;;;;;13.73;6.57;;;25.60;85.60;;;;;;5046902;28;20030;-61
2023/08/13 07:40:18;;;;;;;13.00;5.20;;;25.70;85.10;;;;;;5067756;28;20478;-61
2023/08/13 07:42:44;;;;;;;12.68;6.10;;;25.70;85.00;;;;;;5066419;28;20105;-76
2023/08/13 07:45:10;;;;;;;14.13;6.00;;;25.30;84.90;;;;;;5061670;28;20180;-67
2023/08/13 07:47:36;;;;;;;12.63;5.82;;;25.80;85.20;;;;;;5054412;28;20080;-64
2023/08/13 07:50:07;;;;;;;11.43;5.40;;;25.80;84.80;;;;;;5025135;28;20550;-61
2023/08/13 07:52:34;;;;;;;12.05;5.40;;;26.00;84.80;;;;;;5063835;28;20123;-76
2023/08/13 07:55:00;;;;;;;10.55;4.90;;;25.80;84.60;;;;;;5067095;28;20119;-66
2023/08/13 07:57:26;;;;;;;10.15;4.53;;;26.00;84.70;;;;;;5069943;28;20044;-70
2023/08/13 07:59:52;;;;;;;8.15;4.18;;;26.10;84.30;;;;;;5069385;28;20392;-71
2023/08/13 08:02:18;;;;;;;10.88;4.22;;;26.00;84.10;;;;;;5050038;28;20041;-69
2023/08/13 08:04:45;;;;;;;8.80;3.55;;;26.10;84.00;;;;;;5067740;28;20171;-63
2023/08/13 08:07:10;;;;;;;10.95;4.30;;;26.20;84.00;;;;;;5055828;28;20041;-67
2023/08/13 08:09:36;;;;;;;11.25;4.20;;;26.10;83.60;;;;;;5069044;28;20056;-64
2023/08/13 08:12:02;;;;;;;9.70;3.75;;;26.30;83.40;;;;;;5066618;28;20055;-63
2023/08/13 08:14:28;;;;;;;11.48;3.95;;;26.20;83.40;;;;;;5068028;28;20049;-70
2023/08/13 08:16:59;;;;;;;9.43;4.03;;;26.60;83.60;;;;;;5047418;28;20053;-66
2023/08/13 08:19:25;;;;;;;12.20;3.57;;;26.30;83.40;;;;;;5053821;28;20052;-61
2023/08/13 08:21:51;;;;;;;9.75;3.55;;;26.30;83.10;;;;;;5025646;28;20044;-64
2023/08/13 08:24:17;;;;;;;10.90;3.42;;;26.50;83.30;;;;;;5043327;28;20082;-65
2023/08/13 08:26:42;;;;;;;9.40;3.13;;;26.40;83.20;;;;;;5045811;28;20065;-60
2023/08/13 08:29:08;;;;;;;8.85;3.15;;;26.60;83.20;;;;;;5032876;28;20049;-61
2023/08/13 08:31:34;;;;;;;8.27;3.25;;;26.10;82.80;;;;;;5034872;28;20131;-65
2023/08/13 08:34:00;;;;;;;6.72;2.88;;;26.60;83.30;;;;;;5057068;28;20056;-66
2023/08/13 08:36:26;;;;;;;8.43;3.17;;;26.30;82.90;;;;;;5050300;28;20037;-61
2023/08/13 08:38:52;;;;;;;9.40;3.25;;;26.40;82.80;;;;;;5048120;28;20052;-60
2023/08/13 08:41:18;;;;;;;11.35;3.45;;;26.50;82.50;;;;;;5027328;28;20049;-60
2023/08/13 08:43:43;;;;;;;11.02;2.80;;;26.40;82.50;;;;;;5046987;28;20367;-60
2023/08/13 08:46:09;;;;;;;10.05;3.00;;;26.60;82.50;;;;;;5026173;28;20441;-60
2023/08/13 08:48:35;;;;;;;9.55;3.33;;;26.20;81.80;;;;;;5042016;28;20093;-61
2023/08/13 08:51:00;;;;;;;7.40;2.92;;;26.40;82.20;;;;;;5069595;28;20120;-62
2023/08/13 08:53:26;;;;;;;7.15;2.65;;;26.40;82.40;;;;;;5045162;28;20104;-66
2023/08/13 08:55:52;;;;;;;11.18;3.30;;;26.50;82.40;;;;;;5059661;28;20131;-73
2023/08/13 08:58:18;;;;;;;9.07;2.90;;;26.50;82.50;;;;;;5057604;28;20538;-67
2023/08/13 09:00:44;;;;;;;6.82;2.60;;;26.40;82.10;;;;;;5063917;28;20166;-79
2023/08/13 09:03:10;;;;;;;8.68;2.80;;;26.50;82.40;;;;;;5054919;28;20044;-73
2023/08/13 09:05:36;;;;;;;8.45;3.20;;;26.30;82.20;;;;;;5057318;28;20043;-75
2023/08/13 09:08:20;;;;;;;8.48;2.83;;;26.40;82.30;;;;;;5069688;28;20044;-80
2023/08/13 09:10:46;;;;;;;7.63;3.15;;;26.70;82.20;;;;;;5045056;28;20053;-70
2023/08/13 09:13:12;;;;;;;8.90;3.00;;;26.40;82.30;;;;;;5058160;28;20040;-77
2023/08/13 09:15:58;;;;;;;8.23;2.83;;;26.60;82.70;;;;;;5054611;28;20390;-78
2023/08/13 09:18:23;;;;;;;6.25;2.50;;;26.40;82.80;;;;;;5028976;28;20053;-69
2023/08/13 09:20:49;;;;;;;6.25;3.10;;;26.70;83.00;;;;;;5072274;28;20410;-70
2023/08/13 09:23:22;;;;;;;8.73;3.17;;;26.30;82.60;;;;;;5069769;28;20048;-70
2023/08/13 09:25:55;;;;;;;7.35;2.60;;;26.60;83.30;;;;;;5069973;28;20052;-76
2023/08/13 09:28:21;;;;;;;7.28;2.22;;;26.40;82.90;;;;;;5072278;28;20063;-73
2023/08/13 09:30:46;;;;;;;6.43;2.53;;;26.60;82.60;;;;;;5046618;28;20038;-74
2023/08/13 09:33:15;;;;;;;6.43;2.28;;;26.50;82.60;;;;;;5072148;28;20506;-77
2023/08/13 09:35:42;;;;;;;6.55;2.53;;;26.80;83.00;;;;;;5050488;28;20047;-74
2023/08/13 09:38:08;;;;;;;7.90;2.80;;;26.60;82.60;;;;;;5075165;28;20398;-72
2023/08/13 09:40:34;;;;;;;6.63;2.22;;;26.60;82.50;;;;;;5072419;28;20036;-66
2023/08/13 09:43:00;;;;;;;8.55;2.30;;;26.70;82.50;;;;;;5051815;28;20057;-73
2023/08/13 09:45:27;;;;;;;4.68;2.25;;;26.70;82.60;;;;;;5054369;28;20118;-74
2023/08/13 09:47:54;;;;;;;6.43;2.63;;;26.80;82.80;;;;;;5059904;28;20060;-70
2023/08/13 09:50:20;;;;;;;5.88;2.13;;;26.40;82.40;;;;;;5055163;28;20119;-77
2023/08/13 09:52:46;;;;;;;6.53;2.25;;;26.70;82.40;;;;;;5054304;28;20537;-71
2023/08/13 09:55:15;;;;;;;7.38;2.47;;;26.50;82.50;;;;;;5071984;28;20040;-70
2023/08/13 09:57:42;;;;;;;5.70;2.38;;;26.60;81.20;;;;;;5046071;28;20498;-73
2023/08/13 10:00:09;;;;;;;6.70;2.40;;;26.60;82.60;;;;;;5071493;28;20494;-71
2023/08/13 10:02:35;;;;;;;5.45;2.00;;;26.60;82.00;;;;;;5043053;28;20110;-67
2023/08/13 10:05:02;;;;;;;5.53;2.10;;;26.60;82.30;;;;;;5057667;28;20042;-69
2023/08/13 10:07:27;;;;;;;6.25;2.30;;;26.80;82.60;;;;;;5073673;28;20056;-77
2023/08/13 10:09:53;;;;;;;4.93;2.17;;;26.90;82.40;;;;;;5036328;28;20407;-77
2023/08/13 10:12:19;;;;;;;5.32;2.20;;;26.60;82.10;;;;;;5053525;28;20049;-74
2023/08/13 10:14:45;;;;;;;6.38;2.30;;;26.50;82.20;;;;;;5036593;28;20135;-69
2023/08/13 10:17:14;;;;;;;6.63;2.10;;;26.50;82.40;;;;;;5036927;28;20054;-74
2023/08/13 10:19:41;;;;;;;6.15;2.40;;;26.70;82.60;;;;;;5036933;28;20041;-71
2023/08/13 10:22:11;;;;;;;5.78;2.15;;;26.70;82.80;;;;;;5020602;28;20071;-71
2023/08/13 10:24:37;;;;;;;6.57;2.60;;;26.80;82.80;;;;;;5055373;28;20079;-75
2023/08/13 10:27:03;;;;;;;6.78;2.25;;;26.80;82.60;;;;;;5050970;28;20110;-76
2023/08/13 10:29:40;;;;;;;5.45;1.92;;;26.50;82.50;;;;;;5071157;28;20190;-68
2023/08/13 10:32:16;;;;;;;6.13;2.08;;;26.40;82.90;;;;;;5038152;28;20048;-69
2023/08/13 10:34:50;;;;;;;5.60;1.90;;;26.50;82.80;;;;;;5027342;28;20101;-74
2023/08/13 10:37:20;;;;;;;5.50;1.98;;;26.50;81.40;;;;;;5051858;28;20051;-68
2023/08/13 10:39:54;;;;;;;5.22;1.95;;;26.60;83.00;;;;;;5048895;28;20154;-66
2023/08/13 10:42:26;;;;;;;5.30;2.45;;;26.70;82.80;;;;;;5070544;28;20045;-74
2023/08/13 10:45:02;;;;;;;6.50;2.38;;;26.40;82.70;;;;;;5058563;28;20052;-68
2023/08/13 10:47:47;;;;;;;5.82;1.95;;;26.50;81.20;;;;;;5062991;28;20042;-75
2023/08/13 10:50:20;;;;;;;6.85;2.20;;;26.70;81.60;;;;;;5038383;28;20041;-73
2023/08/13 10:52:52;;;;;;;5.15;1.80;;;26.50;82.90;;;;;;5073867;28;20051;-72
2023/08/13 10:55:18;;;;;;;;;;;26.70;83.10;;;;;;5055352;28;20372;-61
2023/08/13 10:57:51;;;;;;;6.75;2.22;;;26.30;82.70;;;;;;5064000;28;20386;-67
2023/08/13 11:00:18;;;;;;;5.60;1.85;;;26.50;82.90;;;;;;5066201;28;20076;-70
2023/08/13 11:02:44;;;;;;;7.38;2.17;;;26.60;82.90;;;;;;5070751;28;20406;-75
2023/08/13 11:05:10;;;;;;;5.55;1.90;;;26.30;82.60;;;;;;5066807;28;20037;-70
2023/08/13 11:07:36;;;;;;;4.72;1.80;;;26.20;82.50;;;;;;5070683;28;20086;-70
2023/08/13 11:10:03;;;;;;;4.60;1.70;;;26.20;82.30;;;;;;5045210;28;20049;-69
2023/08/13 11:12:30;;;;;;;5.45;1.90;;;26.40;82.70;;;;;;5064643;28;20130;-65
2023/08/13 11:14:59;;;;;;;6.22;2.30;;;26.50;82.60;;;;;;5047365;28;20045;-67
2023/08/13 11:17:25;;;;;;;4.85;1.90;;;26.30;82.90;;;;;;5066421;28;20087;-67
2023/08/13 11:19:56;;;;;;;4.15;1.90;;;26.30;82.40;;;;;;5058302;28;20081;-70
2023/08/13 11:22:23;;;;;;;6.60;1.90;;;26.50;83.00;;;;;;5031395;28;20091;-69
2023/08/13 11:24:49;;;;;;;5.72;1.90;;;26.40;82.40;;;;;;5047895;28;20032;-75
2023/08/13 11:27:15;;;;;;;5.20;2.00;;;26.40;82.50;;;;;;5035841;28;20467;-69
2023/08/13 11:29:42;;;;;;;4.22;1.83;;;26.50;82.00;;;;;;5051277;28;20044;-71
2023/08/13 11:32:07;;;;;;;4.63;1.70;;;26.50;82.60;;;;;;5072247;28;20410;-72
2023/08/13 11:34:33;;;;;;;5.40;1.88;;;26.50;82.50;;;;;;5068316;28;20040;-74
2023/08/13 11:36:59;;;;;;;4.90;1.80;;;26.60;82.40;;;;;;5059022;28;20076;-69
2023/08/13 11:39:25;;;;;;;4.57;1.73;;;26.60;82.40;;;;;;5051898;28;20148;-75
2023/08/13 11:41:51;;;;;;;5.53;1.80;;;26.20;82.00;;;;;;5068578;28;20052;-77
2023/08/13 11:44:17;;;;;;;4.30;1.77;;;26.60;82.30;;;;;;5069977;28;20082;-64
2023/08/13 11:46:56;;;;;;;4.28;1.40;;;26.60;82.50;;;;;;5046915;28;20114;-70
2023/08/13 11:49:22;;;;;;;4.30;1.58;;;26.70;81.40;;;;;;4998765;28;20542;-69
2023/08/13 11:51:49;;;;;;;4.40;1.52;;;26.40;82.30;;;;;;5065293;28;20466;-67
2023/08/13 11:54:17;;;;;;;5.38;1.70;;;26.50;82.30;;;;;;5051744;28;20029;-67
2023/08/13 11:56:43;;;;;;;3.85;1.60;;;26.50;82.50;;;;;;5063798;28;20049;-64
2023/08/13 11:59:08;;;;;;;4.57;1.80;;;26.70;82.30;;;;;;5049586;28;20047;-65
2023/08/13 12:01:34;;;;;;;4.25;1.33;;;26.70;82.20;;;;;;5052097;28;20055;-72
2023/08/13 12:04:03;;;;;;;4.57;1.50;;;26.50;82.00;;;;;;5062253;28;20048;-69
2023/08/13 12:06:29;;;;;;;3.72;1.50;;;26.50;82.20;;;;;;5066402;28;20049;-64
2023/08/13 12:08:56;;;;;;;3.53;1.52;;;26.50;81.90;;;;;;5058121;28;20075;-76
2023/08/13 12:11:22;;;;;;;4.95;1.70;;;26.50;81.90;;;;;;5029143;28;20411;-70
2023/08/13 12:13:48;;;;;;;7.85;1.70;;;26.50;81.70;;;;;;5032198;28;20049;-67
2023/08/13 12:16:14;;;;;;;4.15;1.50;;;26.50;81.90;;;;;;5061855;28;20040;-72
2023/08/13 12:18:40;;;;;;;3.55;1.40;;;26.60;82.00;;;;;;5061626;28;20105;-65
2023/08/13 12:21:05;;;;;;;5.30;1.80;;;26.50;81.90;;;;;;5059739;28;20041;-68
2023/08/13 12:23:31;;;;;;;3.47;1.50;;;26.60;81.90;;;;;;5044231;28;20460;-69
2023/08/13 12:25:58;;;;;;;5.45;1.98;;;26.40;81.70;;;;;;5067059;28;20044;-65
2023/08/13 12:28:23;;;;;;;4.88;1.65;;;26.20;81.80;;;;;;5069373;28;20055;-73
2023/08/13 12:30:49;;;;;;;4.47;1.75;;;26.20;81.60;;;;;;5068778;28;20702;-67
2023/08/13 12:33:15;;;;;;;3.35;1.40;;;26.30;81.70;;;;;;5055693;28;20056;-65
2023/08/13 12:35:41;;;;;;;4.75;1.60;;;26.30;81.60;;;;;;5061521;28;20039;-67
2023/08/13 12:38:06;;;;;;;4.00;1.50;;;26.10;81.60;;;;;;5061976;28;20482;-66
2023/08/13 12:40:32;;;;;;;4.30;1.38;;;26.40;81.90;;;;;;5060312;28;20037;-65
2023/08/13 12:42:58;;;;;;;4.20;1.45;;;26.00;81.70;;;;;;5071619;28;20044;-70